Terminal Aerodrome Forecast
Issued by NWS

Home | Current Version | Previous Version | Text Only | Print | Product List | Glossary On
Versions: 1 2 3 4 5 6 7 8 9 10 11 12 13 14 15 16 17 18 19 20 21 22 23 24 25 26 27 28 29 30 31 32 33 34 35 36
000
FTUS45 KBOI 080447 AAA
TAFJER
TAF AMD
KJER 080447Z 0805/0824 VRB03KT P6SM OVC015
     FM081000 06005KT 1SM BR OVC004
     FM082100 07007KT 6SM BR FEW005=

USA.gov is the U.S. government's official web portal to all federal, state and local government web resources and services.